sensor_id;sensor_type;location;lat;lon;timestamp;P1;durP1;ratioP1;P2;durP2;ratioP2
75362;SDS011;64122;51.988;5.892;2023-12-07T00:00:11;18.90;;;10.25;;
75362;SDS011;64122;51.988;5.892;2023-12-07T00:02:40;19.13;;;9.85;;
75362;SDS011;64122;51.988;5.892;2023-12-07T00:05:10;18.13;;;9.20;;
75362;SDS011;64122;51.988;5.892;2023-12-07T00:07:39;16.65;;;8.73;;
75362;SDS011;64122;51.988;5.892;2023-12-07T00:10:08;13.75;;;7.95;;
75362;SDS011;64122;51.988;5.892;2023-12-07T00:12:37;17.13;;;9.20;;
75362;SDS011;64122;51.988;5.892;2023-12-07T00:15:07;18.33;;;8.75;;
75362;SDS011;64122;51.988;5.892;2023-12-07T00:17:39;17.05;;;8.75;;
75362;SDS011;64122;51.988;5.892;2023-12-07T00:20:09;16.65;;;8.35;;
75362;SDS011;64122;51.988;5.892;2023-12-07T00:22:38;14.95;;;8.07;;
75362;SDS011;64122;51.988;5.892;2023-12-07T00:25:08;16.65;;;8.60;;
75362;SDS011;64122;51.988;5.892;2023-12-07T00:27:37;14.30;;;8.00;;
75362;SDS011;64122;51.988;5.892;2023-12-07T00:30:07;16.88;;;8.18;;
75362;SDS011;64122;51.988;5.892;2023-12-07T00:32:40;18.38;;;8.00;;
75362;SDS011;64122;51.988;5.892;2023-12-07T00:35:10;18.52;;;8.45;;
75362;SDS011;64122;51.988;5.892;2023-12-07T00:37:40;14.68;;;7.65;;
75362;SDS011;64122;51.988;5.892;2023-12-07T00:40:09;19.00;;;8.63;;
75362;SDS011;64122;51.988;5.892;2023-12-07T00:42:39;14.73;;;8.20;;
75362;SDS011;64122;51.988;5.892;2023-12-07T00:45:09;15.38;;;9.00;;
75362;SDS011;64122;51.988;5.892;2023-12-07T00:47:42;14.68;;;7.65;;
75362;SDS011;64122;51.988;5.892;2023-12-07T00:50:12;15.95;;;7.72;;
75362;SDS011;64122;51.988;5.892;2023-12-07T00:52:42;19.13;;;7.78;;
75362;SDS011;64122;51.988;5.892;2023-12-07T00:55:11;23.50;;;9.48;;
75362;SDS011;64122;51.988;5.892;2023-12-07T00:57:40;14.82;;;8.13;;
75362;SDS011;64122;51.988;5.892;2023-12-07T01:00:10;17.75;;;8.73;;
75362;SDS011;64122;51.988;5.892;2023-12-07T01:02:42;16.77;;;8.32;;
75362;SDS011;64122;51.988;5.892;2023-12-07T01:05:11;14.80;;;7.72;;
75362;SDS011;64122;51.988;5.892;2023-12-07T01:07:40;15.10;;;7.22;;
75362;SDS011;64122;51.988;5.892;2023-12-07T01:10:10;13.55;;;7.35;;
75362;SDS011;64122;51.988;5.892;2023-12-07T01:12:39;13.18;;;6.72;;
75362;SDS011;64122;51.988;5.892;2023-12-07T01:15:08;16.88;;;7.50;;
75362;SDS011;64122;51.988;5.892;2023-12-07T01:17:38;14.32;;;6.65;;
75362;SDS011;64122;51.988;5.892;2023-12-07T01:20:10;13.80;;;7.57;;
75362;SDS011;64122;51.988;5.892;2023-12-07T01:22:40;16.63;;;7.60;;
75362;SDS011;64122;51.988;5.892;2023-12-07T01:25:11;14.82;;;7.22;;
75362;SDS011;64122;51.988;5.892;2023-12-07T01:27:45;12.80;;;6.70;;
75362;SDS011;64122;51.988;5.892;2023-12-07T01:30:15;14.75;;;7.55;;
75362;SDS011;64122;51.988;5.892;2023-12-07T01:32:44;16.33;;;7.20;;
75362;SDS011;64122;51.988;5.892;2023-12-07T01:35:16;16.90;;;7.50;;
75362;SDS011;64122;51.988;5.892;2023-12-07T01:37:45;17.30;;;7.22;;
75362;SDS011;64122;51.988;5.892;2023-12-07T01:40:15;16.48;;;7.65;;
75362;SDS011;64122;51.988;5.892;2023-12-07T01:42:49;13.15;;;6.40;;
75362;SDS011;64122;51.988;5.892;2023-12-07T01:45:18;15.85;;;7.00;;
75362;SDS011;64122;51.988;5.892;2023-12-07T01:47:48;14.68;;;6.63;;
75362;SDS011;64122;51.988;5.892;2023-12-07T01:50:21;14.27;;;6.88;;
75362;SDS011;64122;51.988;5.892;2023-12-07T01:52:52;16.88;;;6.85;;
75362;SDS011;64122;51.988;5.892;2023-12-07T01:55:25;15.45;;;6.57;;
75362;SDS011;64122;51.988;5.892;2023-12-07T01:57:56;16.05;;;7.65;;
75362;SDS011;64122;51.988;5.892;2023-12-07T02:00:25;16.23;;;7.05;;
75362;SDS011;64122;51.988;5.892;2023-12-07T02:02:55;17.83;;;7.20;;
75362;SDS011;64122;51.988;5.892;2023-12-07T02:05:27;18.67;;;7.65;;
75362;SDS011;64122;51.988;5.892;2023-12-07T02:07:57;16.05;;;7.15;;
75362;SDS011;64122;51.988;5.892;2023-12-07T02:10:26;16.42;;;6.57;;
75362;SDS011;64122;51.988;5.892;2023-12-07T02:12:56;15.55;;;7.05;;
75362;SDS011;64122;51.988;5.892;2023-12-07T02:15:25;18.88;;;7.38;;
75362;SDS011;64122;51.988;5.892;2023-12-07T02:17:55;17.08;;;6.60;;
75362;SDS011;64122;51.988;5.892;2023-12-07T02:20:35;16.77;;;7.38;;
75362;SDS011;64122;51.988;5.892;2023-12-07T02:23:08;15.30;;;6.90;;
75362;SDS011;64122;51.988;5.892;2023-12-07T02:25:40;12.18;;;6.22;;
75362;SDS011;64122;51.988;5.892;2023-12-07T02:28:15;37.90;;;8.98;;
75362;SDS011;64122;51.988;5.892;2023-12-07T02:30:45;16.05;;;8.20;;
75362;SDS011;64122;51.988;5.892;2023-12-07T02:33:15;67.47;;;10.00;;
75362;SDS011;64122;51.988;5.892;2023-12-07T02:35:45;102.68;;;11.00;;
75362;SDS011;64122;51.988;5.892;2023-12-07T02:38:14;128.13;;;11.88;;
75362;SDS011;64122;51.988;5.892;2023-12-07T02:40:44;98.57;;;10.02;;
75362;SDS011;64122;51.988;5.892;2023-12-07T02:43:17;108.95;;;11.77;;
75362;SDS011;64122;51.988;5.892;2023-12-07T02:45:47;102.75;;;10.55;;
75362;SDS011;64122;51.988;5.892;2023-12-07T02:48:17;128.25;;;12.63;;
75362;SDS011;64122;51.988;5.892;2023-12-07T02:50:46;77.55;;;9.23;;
75362;SDS011;64122;51.988;5.892;2023-12-07T02:53:15;97.78;;;10.93;;
75362;SDS011;64122;51.988;5.892;2023-12-07T02:55:44;69.95;;;9.85;;
75362;SDS011;64122;51.988;5.892;2023-12-07T02:58:14;173.45;;;14.15;;
75362;SDS011;64122;51.988;5.892;2023-12-07T03:00:45;157.95;;;13.05;;
75362;SDS011;64122;51.988;5.892;2023-12-07T03:03:15;246.32;;;14.93;;
75362;SDS011;64122;51.988;5.892;2023-12-07T03:05:44;239.45;;;14.55;;
75362;SDS011;64122;51.988;5.892;2023-12-07T03:08:13;191.55;;;13.88;;
75362;SDS011;64122;51.988;5.892;2023-12-07T03:10:42;137.73;;;10.65;;
75362;SDS011;64122;51.988;5.892;2023-12-07T03:13:12;146.73;;;11.77;;
75362;SDS011;64122;51.988;5.892;2023-12-07T03:15:41;180.95;;;16.15;;
75362;SDS011;64122;51.988;5.892;2023-12-07T03:18:10;117.13;;;12.20;;
75362;SDS011;64122;51.988;5.892;2023-12-07T03:20:39;125.95;;;11.75;;
75362;SDS011;64122;51.988;5.892;2023-12-07T03:23:08;152.25;;;12.57;;
75362;SDS011;64122;51.988;5.892;2023-12-07T03:25:38;113.55;;;10.10;;
75362;SDS011;64122;51.988;5.892;2023-12-07T03:28:07;45.05;;;9.30;;
75362;SDS011;64122;51.988;5.892;2023-12-07T03:30:36;57.92;;;8.70;;
75362;SDS011;64122;51.988;5.892;2023-12-07T03:33:05;29.17;;;7.90;;
75362;SDS011;64122;51.988;5.892;2023-12-07T03:35:37;16.65;;;7.72;;
75362;SDS011;64122;51.988;5.892;2023-12-07T03:38:06;18.48;;;7.30;;
75362;SDS011;64122;51.988;5.892;2023-12-07T03:40:35;14.10;;;7.60;;
75362;SDS011;64122;51.988;5.892;2023-12-07T03:43:04;14.25;;;7.20;;
75362;SDS011;64122;51.988;5.892;2023-12-07T03:45:34;12.30;;;7.05;;
75362;SDS011;64122;51.988;5.892;2023-12-07T03:48:03;16.77;;;7.82;;
75362;SDS011;64122;51.988;5.892;2023-12-07T03:50:33;13.63;;;7.82;;
75362;SDS011;64122;51.988;5.892;2023-12-07T03:53:04;18.35;;;7.78;;
75362;SDS011;64122;51.988;5.892;2023-12-07T03:55:34;13.68;;;7.30;;
75362;SDS011;64122;51.988;5.892;2023-12-07T03:58:03;14.23;;;8.02;;
75362;SDS011;64122;51.988;5.892;2023-12-07T04:00:32;12.60;;;7.25;;
75362;SDS011;64122;51.988;5.892;2023-12-07T04:03:01;17.30;;;8.40;;
75362;SDS011;64122;51.988;5.892;2023-12-07T04:05:30;15.75;;;7.88;;
75362;SDS011;64122;51.988;5.892;2023-12-07T04:08:00;13.45;;;7.97;;
75362;SDS011;64122;51.988;5.892;2023-12-07T04:10:33;17.45;;;8.43;;
75362;SDS011;64122;51.988;5.892;2023-12-07T04:13:02;19.15;;;9.38;;
75362;SDS011;64122;51.988;5.892;2023-12-07T04:15:32;15.80;;;8.25;;
75362;SDS011;64122;51.988;5.892;2023-12-07T04:18:01;14.65;;;7.80;;
75362;SDS011;64122;51.988;5.892;2023-12-07T04:20:30;12.55;;;7.25;;
75362;SDS011;64122;51.988;5.892;2023-12-07T04:22:59;16.13;;;8.43;;
75362;SDS011;64122;51.988;5.892;2023-12-07T04:25:28;18.85;;;9.55;;
75362;SDS011;64122;51.988;5.892;2023-12-07T04:28:00;13.45;;;7.65;;
75362;SDS011;64122;51.988;5.892;2023-12-07T04:30:29;14.90;;;7.53;;
75362;SDS011;64122;51.988;5.892;2023-12-07T04:32:58;13.50;;;7.75;;
75362;SDS011;64122;51.988;5.892;2023-12-07T04:35:27;14.60;;;7.82;;
75362;SDS011;64122;51.988;5.892;2023-12-07T04:37:57;15.02;;;8.45;;
75362;SDS011;64122;51.988;5.892;2023-12-07T04:40:26;18.30;;;9.25;;
75362;SDS011;64122;51.988;5.892;2023-12-07T04:42:55;21.20;;;8.93;;
75362;SDS011;64122;51.988;5.892;2023-12-07T04:45:27;19.13;;;9.98;;
75362;SDS011;64122;51.988;5.892;2023-12-07T04:47:56;40.00;;;10.65;;
75362;SDS011;64122;51.988;5.892;2023-12-07T04:50:26;39.15;;;9.93;;
75362;SDS011;64122;51.988;5.892;2023-12-07T04:52:55;86.97;;;13.00;;
75362;SDS011;64122;51.988;5.892;2023-12-07T04:55:24;99.63;;;12.32;;
75362;SDS011;64122;51.988;5.892;2023-12-07T04:57:54;97.60;;;11.18;;
75362;SDS011;64122;51.988;5.892;2023-12-07T05:00:23;138.13;;;14.45;;
75362;SDS011;64122;51.988;5.892;2023-12-07T05:02:55;138.38;;;13.52;;
75362;SDS011;64122;51.988;5.892;2023-12-07T05:05:24;155.20;;;14.63;;
75362;SDS011;64122;51.988;5.892;2023-12-07T05:07:54;112.28;;;11.70;;
75362;SDS011;64122;51.988;5.892;2023-12-07T05:10:23;173.35;;;14.65;;
75362;SDS011;64122;51.988;5.892;2023-12-07T05:12:52;125.75;;;13.23;;
75362;SDS011;64122;51.988;5.892;2023-12-07T05:15:22;115.32;;;12.07;;
75362;SDS011;64122;51.988;5.892;2023-12-07T05:17:51;172.23;;;13.80;;
75362;SDS011;64122;51.988;5.892;2023-12-07T05:20:23;176.10;;;14.65;;
75362;SDS011;64122;51.988;5.892;2023-12-07T05:22:54;129.13;;;13.00;;
75362;SDS011;64122;51.988;5.892;2023-12-07T05:25:23;148.15;;;13.82;;
75362;SDS011;64122;51.988;5.892;2023-12-07T05:27:52;117.72;;;11.95;;
75362;SDS011;64122;51.988;5.892;2023-12-07T05:30:21;88.75;;;10.93;;
75362;SDS011;64122;51.988;5.892;2023-12-07T05:32:50;137.43;;;13.07;;
75362;SDS011;64122;51.988;5.892;2023-12-07T05:35:20;88.13;;;11.75;;
75362;SDS011;64122;51.988;5.892;2023-12-07T05:37:52;122.40;;;12.02;;
75362;SDS011;64122;51.988;5.892;2023-12-07T05:40:21;182.90;;;13.90;;
75362;SDS011;64122;51.988;5.892;2023-12-07T05:42:50;158.48;;;13.45;;
75362;SDS011;64122;51.988;5.892;2023-12-07T05:45:19;194.52;;;14.80;;
75362;SDS011;64122;51.988;5.892;2023-12-07T05:47:48;102.72;;;10.95;;
75362;SDS011;64122;51.988;5.892;2023-12-07T05:50:17;112.47;;;12.18;;
75362;SDS011;64122;51.988;5.892;2023-12-07T05:52:49;144.10;;;12.45;;
75362;SDS011;64122;51.988;5.892;2023-12-07T05:55:18;130.13;;;11.45;;
75362;SDS011;64122;51.988;5.892;2023-12-07T05:57:48;149.10;;;12.07;;
75362;SDS011;64122;51.988;5.892;2023-12-07T06:00:17;125.97;;;12.90;;
75362;SDS011;64122;51.988;5.892;2023-12-07T06:02:47;137.98;;;11.50;;
75362;SDS011;64122;51.988;5.892;2023-12-07T06:05:16;140.10;;;12.55;;
75362;SDS011;64122;51.988;5.892;2023-12-07T06:07:45;159.60;;;13.10;;
75362;SDS011;64122;51.988;5.892;2023-12-07T06:10:19;138.45;;;13.43;;
75362;SDS011;64122;51.988;5.892;2023-12-07T06:12:48;139.27;;;12.90;;
75362;SDS011;64122;51.988;5.892;2023-12-07T06:15:18;133.18;;;12.95;;
75362;SDS011;64122;51.988;5.892;2023-12-07T06:17:47;106.25;;;11.68;;
75362;SDS011;64122;51.988;5.892;2023-12-07T06:20:16;116.75;;;12.73;;
75362;SDS011;64122;51.988;5.892;2023-12-07T06:22:48;173.93;;;14.00;;
75362;SDS011;64122;51.988;5.892;2023-12-07T06:25:18;240.02;;;17.75;;
75362;SDS011;64122;51.988;5.892;2023-12-07T06:27:47;147.98;;;13.55;;
75362;SDS011;64122;51.988;5.892;2023-12-07T06:30:16;172.55;;;14.57;;
75362;SDS011;64122;51.988;5.892;2023-12-07T06:32:46;197.63;;;14.82;;
75362;SDS011;64122;51.988;5.892;2023-12-07T06:35:15;183.43;;;15.15;;
75362;SDS011;64122;51.988;5.892;2023-12-07T06:37:45;171.52;;;13.98;;
75362;SDS011;64122;51.988;5.892;2023-12-07T06:40:16;221.88;;;15.93;;
75362;SDS011;64122;51.988;5.892;2023-12-07T06:42:46;119.75;;;12.32;;
75362;SDS011;64122;51.988;5.892;2023-12-07T06:45:15;179.73;;;14.38;;
75362;SDS011;64122;51.988;5.892;2023-12-07T06:47:44;262.80;;;16.95;;
75362;SDS011;64122;51.988;5.892;2023-12-07T06:50:13;159.73;;;13.43;;
75362;SDS011;64122;51.988;5.892;2023-12-07T06:52:42;222.57;;;16.05;;
75362;SDS011;64122;51.988;5.892;2023-12-07T06:55:12;183.45;;;16.50;;
75362;SDS011;64122;51.988;5.892;2023-12-07T06:57:44;117.13;;;12.75;;
75362;SDS011;64122;51.988;5.892;2023-12-07T07:00:13;153.18;;;13.98;;
75362;SDS011;64122;51.988;5.892;2023-12-07T07:02:44;138.10;;;12.52;;
75362;SDS011;64122;51.988;5.892;2023-12-07T07:05:13;220.00;;;16.30;;
75362;SDS011;64122;51.988;5.892;2023-12-07T07:07:42;110.75;;;11.27;;
75362;SDS011;64122;51.988;5.892;2023-12-07T07:10:11;100.55;;;10.82;;
75362;SDS011;64122;51.988;5.892;2023-12-07T07:12:40;110.38;;;11.57;;
75362;SDS011;64122;51.988;5.892;2023-12-07T07:15:12;147.82;;;13.30;;
75362;SDS011;64122;51.988;5.892;2023-12-07T07:17:42;129.63;;;11.95;;
75362;SDS011;64122;51.988;5.892;2023-12-07T07:20:11;191.48;;;14.93;;
75362;SDS011;64122;51.988;5.892;2023-12-07T07:22:40;169.15;;;13.23;;
75362;SDS011;64122;51.988;5.892;2023-12-07T07:25:10;126.88;;;12.98;;
75362;SDS011;64122;51.988;5.892;2023-12-07T07:27:41;123.57;;;12.30;;
75362;SDS011;64122;51.988;5.892;2023-12-07T07:30:13;192.23;;;14.02;;
75362;SDS011;64122;51.988;5.892;2023-12-07T07:32:42;148.82;;;13.73;;
75362;SDS011;64122;51.988;5.892;2023-12-07T07:35:11;183.35;;;14.95;;
75362;SDS011;64122;51.988;5.892;2023-12-07T07:37:41;121.75;;;12.65;;
75362;SDS011;64122;51.988;5.892;2023-12-07T07:40:10;136.20;;;13.20;;
75362;SDS011;64122;51.988;5.892;2023-12-07T07:42:40;138.88;;;12.85;;
75362;SDS011;64122;51.988;5.892;2023-12-07T07:45:12;102.70;;;12.25;;
75362;SDS011;64122;51.988;5.892;2023-12-07T07:47:42;144.10;;;13.82;;
75362;SDS011;64122;51.988;5.892;2023-12-07T07:50:11;143.52;;;13.30;;
75362;SDS011;64122;51.988;5.892;2023-12-07T07:52:40;170.00;;;13.80;;
75362;SDS011;64122;51.988;5.892;2023-12-07T07:55:09;116.00;;;12.48;;
75362;SDS011;64122;51.988;5.892;2023-12-07T07:57:39;100.35;;;11.43;;
75362;SDS011;64122;51.988;5.892;2023-12-07T08:00:09;106.35;;;12.13;;
75362;SDS011;64122;51.988;5.892;2023-12-07T08:02:43;123.47;;;12.63;;
75362;SDS011;64122;51.988;5.892;2023-12-07T08:05:12;113.40;;;11.73;;
75362;SDS011;64122;51.988;5.892;2023-12-07T08:07:41;147.30;;;13.30;;
75362;SDS011;64122;51.988;5.892;2023-12-07T08:10:11;114.70;;;12.50;;
75362;SDS011;64122;51.988;5.892;2023-12-07T08:12:40;101.70;;;11.57;;
75362;SDS011;64122;51.988;5.892;2023-12-07T08:15:09;128.02;;;13.40;;
75362;SDS011;64122;51.988;5.892;2023-12-07T08:17:42;97.13;;;11.80;;
75362;SDS011;64122;51.988;5.892;2023-12-07T08:20:11;87.22;;;11.05;;
75362;SDS011;64122;51.988;5.892;2023-12-07T08:22:41;79.07;;;12.18;;
75362;SDS011;64122;51.988;5.892;2023-12-07T08:25:10;141.40;;;13.02;;
75362;SDS011;64122;51.988;5.892;2023-12-07T08:27:39;72.72;;;10.27;;
75362;SDS011;64122;51.988;5.892;2023-12-07T08:30:13;127.43;;;12.18;;
75362;SDS011;64122;51.988;5.892;2023-12-07T08:32:42;129.70;;;11.43;;
75362;SDS011;64122;51.988;5.892;2023-12-07T08:35:11;124.32;;;11.93;;
75362;SDS011;64122;51.988;5.892;2023-12-07T08:37:40;72.97;;;10.43;;
75362;SDS011;64122;51.988;5.892;2023-12-07T08:40:10;105.43;;;11.20;;
75362;SDS011;64122;51.988;5.892;2023-12-07T08:42:41;114.55;;;11.82;;
75362;SDS011;64122;51.988;5.892;2023-12-07T08:45:14;133.02;;;12.20;;
75362;SDS011;64122;51.988;5.892;2023-12-07T08:47:43;95.90;;;10.93;;
75362;SDS011;64122;51.988;5.892;2023-12-07T08:50:13;130.40;;;13.50;;
75362;SDS011;64122;51.988;5.892;2023-12-07T08:52:42;75.68;;;11.60;;
75362;SDS011;64122;51.988;5.892;2023-12-07T08:55:11;95.28;;;11.48;;
75362;SDS011;64122;51.988;5.892;2023-12-07T08:57:41;70.88;;;11.10;;
75362;SDS011;64122;51.988;5.892;2023-12-07T09:00:10;119.32;;;12.77;;
75362;SDS011;64122;51.988;5.892;2023-12-07T09:02:43;154.80;;;13.48;;
75362;SDS011;64122;51.988;5.892;2023-12-07T09:05:10;67.25;;;10.40;;
75362;SDS011;64122;51.988;5.892;2023-12-07T09:07:39;70.50;;;10.68;;
75362;SDS011;64122;51.988;5.892;2023-12-07T09:10:09;117.30;;;12.55;;
75362;SDS011;64122;51.988;5.892;2023-12-07T09:12:38;155.48;;;13.95;;
75362;SDS011;64122;51.988;5.892;2023-12-07T09:15:08;109.00;;;14.82;;
75362;SDS011;64122;51.988;5.892;2023-12-07T09:17:38;79.03;;;11.07;;
75362;SDS011;64122;51.988;5.892;2023-12-07T09:20:11;107.47;;;11.38;;
75362;SDS011;64122;51.988;5.892;2023-12-07T09:22:42;122.13;;;11.85;;
75362;SDS011;64122;51.988;5.892;2023-12-07T09:25:11;137.30;;;13.85;;
75362;SDS011;64122;51.988;5.892;2023-12-07T09:27:40;131.65;;;12.85;;
75362;SDS011;64122;51.988;5.892;2023-12-07T09:30:10;65.47;;;9.95;;
75362;SDS011;64122;51.988;5.892;2023-12-07T09:32:40;89.80;;;10.95;;
75362;SDS011;64122;51.988;5.892;2023-12-07T09:35:12;143.80;;;14.13;;
75362;SDS011;64122;51.988;5.892;2023-12-07T09:37:44;78.85;;;10.57;;
75362;SDS011;64122;51.988;5.892;2023-12-07T09:40:14;67.72;;;10.95;;
75362;SDS011;64122;51.988;5.892;2023-12-07T09:42:46;63.05;;;8.20;;
75362;SDS011;64122;51.988;5.892;2023-12-07T09:45:15;63.55;;;9.38;;
75362;SDS011;64122;51.988;5.892;2023-12-07T09:47:46;76.28;;;11.13;;
75362;SDS011;64122;51.988;5.892;2023-12-07T09:50:20;51.88;;;8.10;;
75362;SDS011;64122;51.988;5.892;2023-12-07T09:52:51;59.42;;;8.93;;
75362;SDS011;64122;51.988;5.892;2023-12-07T09:55:22;46.35;;;7.32;;
75362;SDS011;64122;51.988;5.892;2023-12-07T09:57:52;69.68;;;9.63;;
75362;SDS011;64122;51.988;5.892;2023-12-07T10:00:24;75.97;;;8.65;;
75362;SDS011;64122;51.988;5.892;2023-12-07T10:02:53;67.13;;;8.57;;
75362;SDS011;64122;51.988;5.892;2023-12-07T10:05:25;25.40;;;6.10;;
75362;SDS011;64122;51.988;5.892;2023-12-07T10:07:54;48.00;;;7.35;;
75362;SDS011;64122;51.988;5.892;2023-12-07T10:10:23;43.13;;;8.63;;
75362;SDS011;64122;51.988;5.892;2023-12-07T10:12:53;98.95;;;9.43;;
75362;SDS011;64122;51.988;5.892;2023-12-07T10:15:23;17.38;;;5.70;;
75362;SDS011;64122;51.988;5.892;2023-12-07T10:17:55;32.38;;;6.45;;
75362;SDS011;64122;51.988;5.892;2023-12-07T10:20:28;28.55;;;6.65;;
75362;SDS011;64122;51.988;5.892;2023-12-07T10:23:01;19.65;;;6.38;;
75362;SDS011;64122;51.988;5.892;2023-12-07T10:25:31;19.45;;;5.95;;
75362;SDS011;64122;51.988;5.892;2023-12-07T10:28:00;21.67;;;6.40;;
75362;SDS011;64122;51.988;5.892;2023-12-07T10:30:32;18.40;;;6.05;;
75362;SDS011;64122;51.988;5.892;2023-12-07T10:33:02;25.17;;;9.48;;
75362;SDS011;64122;51.988;5.892;2023-12-07T10:35:35;17.88;;;6.13;;
75362;SDS011;64122;51.988;5.892;2023-12-07T10:38:07;25.52;;;6.68;;
75362;SDS011;64122;51.988;5.892;2023-12-07T10:40:36;34.67;;;7.20;;
75362;SDS011;64122;51.988;5.892;2023-12-07T10:43:07;37.45;;;6.78;;
75362;SDS011;64122;51.988;5.892;2023-12-07T10:45:37;25.70;;;7.85;;
75362;SDS011;64122;51.988;5.892;2023-12-07T10:48:09;25.80;;;6.65;;
75362;SDS011;64122;51.988;5.892;2023-12-07T10:50:42;22.73;;;7.45;;
75362;SDS011;64122;51.988;5.892;2023-12-07T10:53:18;31.55;;;7.78;;
75362;SDS011;64122;51.988;5.892;2023-12-07T10:55:52;22.27;;;5.85;;
75362;SDS011;64122;51.988;5.892;2023-12-07T10:58:24;28.23;;;7.80;;
75362;SDS011;64122;51.988;5.892;2023-12-07T11:00:54;23.63;;;8.35;;
75362;SDS011;64122;51.988;5.892;2023-12-07T11:03:23;32.10;;;8.00;;
75362;SDS011;64122;51.988;5.892;2023-12-07T11:05:56;21.00;;;7.30;;
75362;SDS011;64122;51.988;5.892;2023-12-07T11:08:28;28.20;;;7.88;;
75362;SDS011;64122;51.988;5.892;2023-12-07T11:11:04;33.35;;;8.05;;
75362;SDS011;64122;51.988;5.892;2023-12-07T11:13:38;30.77;;;8.40;;
75362;SDS011;64122;51.988;5.892;2023-12-07T11:16:14;34.75;;;8.73;;
75362;SDS011;64122;51.988;5.892;2023-12-07T11:18:43;31.30;;;8.65;;
75362;SDS011;64122;51.988;5.892;2023-12-07T11:21:17;26.20;;;9.15;;
75362;SDS011;64122;51.988;5.892;2023-12-07T11:23:46;37.40;;;9.05;;
75362;SDS011;64122;51.988;5.892;2023-12-07T11:26:18;27.17;;;8.88;;
75362;SDS011;64122;51.988;5.892;2023-12-07T11:28:48;26.95;;;9.48;;
75362;SDS011;64122;51.988;5.892;2023-12-07T11:31:17;34.72;;;9.13;;
75362;SDS011;64122;51.988;5.892;2023-12-07T11:33:48;28.13;;;9.85;;
75362;SDS011;64122;51.988;5.892;2023-12-07T11:36:20;31.40;;;10.45;;
75362;SDS011;64122;51.988;5.892;2023-12-07T11:41:49;23.70;;;10.82;;
75362;SDS011;64122;51.988;5.892;2023-12-07T11:44:24;27.33;;;10.88;;
75362;SDS011;64122;51.988;5.892;2023-12-07T11:47:01;26.40;;;9.80;;
75362;SDS011;64122;51.988;5.892;2023-12-07T11:49:31;28.60;;;10.63;;
75362;SDS011;64122;51.988;5.892;2023-12-07T11:52:11;27.80;;;10.98;;
75362;SDS011;64122;51.988;5.892;2023-12-07T11:54:42;25.42;;;10.25;;
75362;SDS011;64122;51.988;5.892;2023-12-07T11:57:13;27.52;;;10.40;;
75362;SDS011;64122;51.988;5.892;2023-12-07T11:59:43;25.15;;;10.57;;
75362;SDS011;64122;51.988;5.892;2023-12-07T12:02:13;27.02;;;11.32;;
75362;SDS011;64122;51.988;5.892;2023-12-07T12:04:43;29.48;;;12.82;;
75362;SDS011;64122;51.988;5.892;2023-12-07T12:07:14;31.30;;;10.63;;
75362;SDS011;64122;51.988;5.892;2023-12-07T12:09:44;23.30;;;10.82;;
75362;SDS011;64122;51.988;5.892;2023-12-07T12:12:13;24.20;;;10.18;;
75362;SDS011;64122;51.988;5.892;2023-12-07T12:14:42;28.70;;;11.52;;
75362;SDS011;64122;51.988;5.892;2023-12-07T12:17:14;25.20;;;10.50;;
75362;SDS011;64122;51.988;5.892;2023-12-07T12:19:44;26.60;;;10.60;;
75362;SDS011;64122;51.988;5.892;2023-12-07T12:22:19;29.55;;;12.13;;
75362;SDS011;64122;51.988;5.892;2023-12-07T12:24:48;23.75;;;10.23;;
75362;SDS011;64122;51.988;5.892;2023-12-07T12:27:17;25.90;;;10.77;;
75362;SDS011;64122;51.988;5.892;2023-12-07T12:29:46;28.88;;;12.55;;
75362;SDS011;64122;51.988;5.892;2023-12-07T12:32:16;25.17;;;11.27;;
75362;SDS011;64122;51.988;5.892;2023-12-07T12:34:50;24.05;;;10.02;;
75362;SDS011;64122;51.988;5.892;2023-12-07T12:37:22;25.63;;;11.30;;
75362;SDS011;64122;51.988;5.892;2023-12-07T12:39:52;25.05;;;10.80;;
75362;SDS011;64122;51.988;5.892;2023-12-07T12:42:22;29.45;;;13.10;;
75362;SDS011;64122;51.988;5.892;2023-12-07T12:44:51;28.42;;;11.20;;
75362;SDS011;64122;51.988;5.892;2023-12-07T12:47:20;25.90;;;9.95;;
75362;SDS011;64122;51.988;5.892;2023-12-07T12:49:49;30.58;;;12.65;;
75362;SDS011;64122;51.988;5.892;2023-12-07T12:52:19;27.70;;;11.32;;
75362;SDS011;64122;51.988;5.892;2023-12-07T12:54:52;33.72;;;14.10;;
75362;SDS011;64122;51.988;5.892;2023-12-07T12:57:24;31.15;;;13.57;;
75362;SDS011;64122;51.988;5.892;2023-12-07T12:59:53;28.75;;;12.80;;
75362;SDS011;64122;51.988;5.892;2023-12-07T13:02:23;28.48;;;12.50;;
75362;SDS011;64122;51.988;5.892;2023-12-07T13:04:52;27.20;;;11.68;;
75362;SDS011;64122;51.988;5.892;2023-12-07T13:07:24;28.50;;;12.80;;
75362;SDS011;64122;51.988;5.892;2023-12-07T13:09:53;39.65;;;17.08;;
75362;SDS011;64122;51.988;5.892;2023-12-07T13:12:22;35.55;;;14.07;;
75362;SDS011;64122;51.988;5.892;2023-12-07T13:14:53;29.85;;;12.50;;
75362;SDS011;64122;51.988;5.892;2023-12-07T13:17:23;31.83;;;13.80;;
75362;SDS011;64122;51.988;5.892;2023-12-07T13:19:52;28.30;;;12.43;;
75362;SDS011;64122;51.988;5.892;2023-12-07T13:22:24;36.88;;;15.68;;
75362;SDS011;64122;51.988;5.892;2023-12-07T13:24:54;34.05;;;14.43;;
75362;SDS011;64122;51.988;5.892;2023-12-07T13:27:23;31.67;;;12.85;;
75362;SDS011;64122;51.988;5.892;2023-12-07T13:29:52;36.13;;;16.42;;
75362;SDS011;64122;51.988;5.892;2023-12-07T13:32:21;35.13;;;15.02;;
75362;SDS011;64122;51.988;5.892;2023-12-07T13:34:50;33.90;;;15.23;;
75362;SDS011;64122;51.988;5.892;2023-12-07T13:37:19;29.98;;;12.65;;
75362;SDS011;64122;51.988;5.892;2023-12-07T13:39:52;38.28;;;15.30;;
75362;SDS011;64122;51.988;5.892;2023-12-07T13:42:23;33.15;;;13.60;;
75362;SDS011;64122;51.988;5.892;2023-12-07T13:44:54;38.63;;;16.30;;
75362;SDS011;64122;51.988;5.892;2023-12-07T13:47:26;33.78;;;14.70;;
75362;SDS011;64122;51.988;5.892;2023-12-07T13:49:57;33.45;;;14.50;;
75362;SDS011;64122;51.988;5.892;2023-12-07T13:52:32;36.75;;;15.02;;
75362;SDS011;64122;51.988;5.892;2023-12-07T13:55:05;34.50;;;14.75;;
75362;SDS011;64122;51.988;5.892;2023-12-07T13:57:35;32.10;;;14.00;;
75362;SDS011;64122;51.988;5.892;2023-12-07T14:00:06;33.70;;;14.82;;
75362;SDS011;64122;51.988;5.892;2023-12-07T14:05:13;29.73;;;11.73;;
75362;SDS011;64122;51.988;5.892;2023-12-07T14:07:43;30.08;;;13.15;;
75362;SDS011;64122;51.988;5.892;2023-12-07T14:10:16;31.08;;;14.07;;
75362;SDS011;64122;51.988;5.892;2023-12-07T14:12:45;32.50;;;13.68;;
75362;SDS011;64122;51.988;5.892;2023-12-07T14:15:14;36.25;;;15.23;;
75362;SDS011;64122;51.988;5.892;2023-12-07T14:17:43;29.35;;;13.70;;
75362;SDS011;64122;51.988;5.892;2023-12-07T14:20:13;29.70;;;13.48;;
75362;SDS011;64122;51.988;5.892;2023-12-07T14:22:42;29.02;;;13.63;;
75362;SDS011;64122;51.988;5.892;2023-12-07T14:25:12;31.45;;;14.23;;
75362;SDS011;64122;51.988;5.892;2023-12-07T14:27:44;31.65;;;15.43;;
75362;SDS011;64122;51.988;5.892;2023-12-07T14:30:13;32.58;;;15.43;;
75362;SDS011;64122;51.988;5.892;2023-12-07T14:32:43;33.13;;;15.85;;
75362;SDS011;64122;51.988;5.892;2023-12-07T14:35:25;32.63;;;14.52;;
75362;SDS011;64122;51.988;5.892;2023-12-07T14:37:59;29.38;;;13.73;;
75362;SDS011;64122;51.988;5.892;2023-12-07T14:40:28;29.25;;;14.43;;
75362;SDS011;64122;51.988;5.892;2023-12-07T14:43:00;31.08;;;15.77;;
75362;SDS011;64122;51.988;5.892;2023-12-07T14:45:29;26.95;;;12.82;;